Time;durP1;ratioP1;P1;durP2;ratioP2;P2;SDS_P1;SDS_P2;PMS_P1;PMS_P2;Temp;Humidity;BMP_temperature;BMP_pressure;BME280_temperature;BME280_humidity;BME280_pressure;Samples;Min_cycle;Max_cycle;Signal;HPM_P1;HPM_P2
2022/03/05 00:01:26;;;;;;;20.10;7.32;;;-0.40;99.90;;;;;;5056019;28;20063;-64
2022/03/05 00:03:52;;;;;;;20.75;7.05;;;1.30;99.90;;;;;;5054557;28;20029;-65
2022/03/05 00:06:17;;;;;;;17.92;7.32;;;1.60;99.90;;;;;;5055846;28;20052;-65
2022/03/05 00:08:43;;;;;;;18.50;7.40;;;-0.20;99.90;;;;;;5054814;28;20138;-65
2022/03/05 00:11:09;;;;;;;22.05;7.20;;;0.40;99.90;;;;;;5055447;28;20465;-65
2022/03/05 00:13:37;;;;;;;19.63;7.43;;;-0.70;99.90;;;;;;5056067;28;20030;-64
2022/03/05 00:16:04;;;;;;;16.42;6.05;;;-0.70;99.90;;;;;;5055622;28;20025;-64
2022/03/05 00:18:30;;;;;;;21.67;7.68;;;-0.70;99.90;;;;;;5055770;28;20029;-65
2022/03/05 00:20:56;;;;;;;20.48;7.75;;;-0.60;99.90;;;;;;5055559;28;20025;-64
2022/03/05 00:23:22;;;;;;;21.13;7.28;;;-0.60;99.90;;;;;;5055477;28;20078;-64
2022/03/05 00:25:48;;;;;;;16.35;7.32;;;-0.50;99.90;;;;;;5055744;28;20028;-64
2022/03/05 00:28:14;;;;;;;16.92;6.82;;;-0.50;99.90;;;;;;5054155;28;20025;-64
2022/03/05 00:30:41;;;;;;;18.85;7.45;;;-0.50;99.90;;;;;;5054089;28;20025;-63
2022/03/05 00:33:07;;;;;;;21.75;7.72;;;-0.50;99.90;;;;;;5053985;28;20465;-64
2022/03/05 00:35:33;;;;;;;20.05;7.88;;;-0.40;99.90;;;;;;5055254;28;20027;-64
2022/03/05 00:37:59;;;;;;;13.20;6.75;;;-0.40;99.90;;;;;;5054329;28;20087;-66
2022/03/05 00:40:25;;;;;;;16.33;6.80;;;-0.40;99.90;;;;;;5053993;28;20025;-62
2022/03/05 00:42:50;;;;;;;17.40;7.20;;;-0.40;99.90;;;;;;5055319;28;20032;-63
2022/03/05 00:45:16;;;;;;;14.18;6.38;;;0.70;99.90;;;;;;5055079;28;20025;-63
2022/03/05 00:47:42;;;;;;;15.45;6.57;;;-0.30;99.90;;;;;;5053720;28;20029;-62
2022/03/05 00:50:08;;;;;;;18.15;7.10;;;-0.30;99.90;;;;;;5055918;28;20040;-63
2022/03/05 00:52:36;;;;;;;17.38;7.10;;;-0.30;99.90;;;;;;5054868;28;20036;-63
2022/03/05 00:55:02;;;;;;;21.52;6.85;;;-0.30;99.90;;;;;;5055208;28;20021;-62
2022/03/05 00:57:27;;;;;;;15.10;6.53;;;-0.30;99.90;;;;;;5053538;28;20036;-62
2022/03/05 00:59:53;;;;;;;16.88;7.32;;;-0.30;99.90;;;;;;5053533;28;20110;-63
2022/03/05 01:02:19;;;;;;;17.92;7.07;;;1.60;99.90;;;;;;5054997;28;20405;-62
2022/03/05 01:04:44;;;;;;;18.13;7.25;;;1.20;99.90;;;;;;5054696;28;20079;-63
2022/03/05 01:07:10;;;;;;;16.30;7.25;;;-0.20;99.90;;;;;;5054589;28;20098;-63
2022/03/05 01:09:54;;;;;;;19.65;6.95;;;-0.10;99.90;;;;;;5054720;28;20029;-63
2022/03/05 01:12:22;;;;;;;19.60;7.15;;;-0.10;99.90;;;;;;5054638;28;20033;-63
2022/03/05 01:14:48;;;;;;;20.73;7.88;;;0.00;99.90;;;;;;5054668;28;20017;-64
2022/03/05 01:17:13;;;;;;;17.45;7.88;;;1.80;99.90;;;;;;5055130;28;20059;-63
2022/03/05 01:19:39;;;;;;;20.98;8.07;;;0.00;99.90;;;;;;5054228;28;20471;-63
2022/03/05 01:22:05;;;;;;;22.10;7.32;;;0.00;99.90;;;;;;5055401;28;20134;-63
2022/03/05 01:24:31;;;;;;;19.00;7.43;;;0.00;99.90;;;;;;5053125;28;20029;-63
2022/03/05 01:26:57;;;;;;;18.13;7.68;;;0.10;99.90;;;;;;5053066;28;20029;-63
2022/03/05 01:29:23;;;;;;;19.23;7.45;;;0.90;99.90;;;;;;5052981;28;20350;-63
2022/03/05 01:31:48;;;;;;;19.67;7.78;;;0.30;99.90;;;;;;5054121;28;20603;-63
2022/03/05 01:34:14;;;;;;;17.92;6.85;;;0.20;99.90;;;;;;5054169;28;20025;-62
2022/03/05 01:36:40;;;;;;;17.67;7.45;;;0.20;99.90;;;;;;5053018;28;20021;-63
2022/03/05 01:39:06;;;;;;;18.80;7.63;;;0.20;99.90;;;;;;5054051;28;20028;-62
2022/03/05 01:41:31;;;;;;;16.67;7.35;;;0.30;99.90;;;;;;5054547;28;20028;-63
2022/03/05 01:43:58;;;;;;;14.88;7.40;;;0.30;99.90;;;;;;5054170;28;20106;-62
2022/03/05 01:46:35;;;;;;;16.80;6.72;;;0.40;99.90;;;;;;5054275;28;20457;-63
2022/03/05 01:49:10;;;;;;;14.45;6.22;;;0.40;99.90;;;;;;5053842;28;20025;-63
2022/03/05 01:51:37;;;;;;;16.77;7.93;;;0.80;99.90;;;;;;5053897;28;20033;-63
2022/03/05 01:54:03;;;;;;;18.60;7.85;;;0.50;99.90;;;;;;5053493;28;20049;-63
2022/03/05 01:56:30;;;;;;;19.75;7.07;;;0.30;99.90;;;;;;5053894;28;20056;-63
2022/03/05 01:58:56;;;;;;;16.55;7.40;;;0.30;99.90;;;;;;5053798;28;20029;-63
2022/03/05 02:01:24;;;;;;;17.02;7.65;;;0.30;99.90;;;;;;5052664;28;20032;-63
2022/03/05 02:03:51;;;;;;;17.40;6.83;;;0.30;99.90;;;;;;5054224;28;20090;-63
2022/03/05 02:06:17;;;;;;;19.60;7.70;;;0.30;99.90;;;;;;5052209;28;20045;-63
2022/03/05 02:08:43;;;;;;;20.13;8.00;;;0.30;99.90;;;;;;5053762;28;20021;-64
2022/03/05 02:11:08;;;;;;;18.25;7.28;;;1.90;99.90;;;;;;5052661;28;20057;-63
2022/03/05 02:13:36;;;;;;;15.30;7.57;;;0.30;99.90;;;;;;5052308;28;20029;-63
2022/03/05 02:16:02;;;;;;;17.70;7.53;;;0.40;99.90;;;;;;5053585;28;20372;-63
2022/03/05 02:18:27;;;;;;;17.45;7.22;;;0.40;99.90;;;;;;5052602;28;20115;-63
2022/03/05 02:20:54;;;;;;;20.60;7.43;;;0.70;99.90;;;;;;5052313;28;20021;-63
2022/03/05 02:23:20;;;;;;;19.38;7.18;;;0.40;99.90;;;;;;5053576;28;20074;-63
2022/03/05 02:25:54;;;;;;;19.20;7.50;;;0.40;99.90;;;;;;5053651;28;20057;-63
2022/03/05 02:28:21;;;;;;;20.25;8.05;;;0.40;99.90;;;;;;5053713;28;20025;-63
2022/03/05 02:30:47;;;;;;;21.35;8.30;;;0.40;99.90;;;;;;5053677;28;20082;-63
2022/03/05 02:33:13;;;;;;;20.20;8.05;;;0.30;99.90;;;;;;5052175;28;20036;-63
2022/03/05 02:35:58;;;;;;;21.05;8.32;;;0.50;99.90;;;;;;5053451;28;20028;-63
2022/03/05 02:38:24;;;;;;;20.92;8.35;;;0.40;99.90;;;;;;5053181;28;20025;-63
2022/03/05 02:40:51;;;;;;;18.00;7.28;;;0.40;99.90;;;;;;5052096;28;20083;-63
2022/03/05 02:43:17;;;;;;;18.77;7.85;;;0.50;99.90;;;;;;5052399;28;20029;-62
2022/03/05 02:45:43;;;;;;;18.08;8.50;;;0.90;99.90;;;;;;5052100;28;20496;-63
2022/03/05 02:48:12;;;;;;;19.73;8.50;;;0.40;99.90;;;;;;5053300;28;20424;-63
2022/03/05 02:50:38;;;;;;;19.65;7.72;;;0.40;99.90;;;;;;5053318;28;20029;-63
2022/03/05 02:53:04;;;;;;;23.60;8.73;;;0.40;99.90;;;;;;5052917;28;20362;-63
2022/03/05 02:55:30;;;;;;;20.98;8.70;;;0.40;99.90;;;;;;5053037;28;20040;-63
2022/03/05 02:57:56;;;;;;;24.05;8.43;;;0.40;99.90;;;;;;5053525;28;20055;-63
2022/03/05 03:00:22;;;;;;;16.17;7.68;;;0.30;99.90;;;;;;5053481;28;20457;-63
2022/03/05 03:02:49;;;;;;;23.02;9.40;;;0.30;99.90;;;;;;5056670;28;20155;-63
2022/03/05 03:05:16;;;;;;;19.27;7.78;;;0.30;99.90;;;;;;5056998;28;20028;-63
2022/03/05 03:07:42;;;;;;;17.20;7.82;;;0.30;99.90;;;;;;5055653;28;20045;-63
2022/03/05 03:10:09;;;;;;;19.80;8.88;;;0.30;99.90;;;;;;5056785;28;20490;-63
2022/03/05 03:12:36;;;;;;;23.55;9.48;;;0.20;99.90;;;;;;5056802;28;20072;-63
2022/03/05 03:15:03;;;;;;;19.40;8.57;;;0.50;99.90;;;;;;5056796;28;20032;-63
2022/03/05 03:17:29;;;;;;;21.67;8.82;;;0.20;99.90;;;;;;5056762;28;20025;-63
2022/03/05 03:19:55;;;;;;;19.63;9.07;;;0.20;99.90;;;;;;5055452;28;20047;-63
2022/03/05 03:22:21;;;;;;;18.30;8.40;;;0.30;99.90;;;;;;5056674;28;20029;-63
2022/03/05 03:24:46;;;;;;;22.48;9.45;;;0.40;99.90;;;;;;5056891;28;20095;-63
2022/03/05 03:27:12;;;;;;;22.17;8.35;;;0.40;99.90;;;;;;5056878;28;20449;-62
2022/03/05 03:29:38;;;;;;;26.38;9.57;;;0.30;99.90;;;;;;5056498;28;20025;-63
2022/03/05 03:32:04;;;;;;;22.73;10.30;;;0.30;99.90;;;;;;5056146;28;20451;-63
2022/03/05 03:34:30;;;;;;;27.55;10.40;;;0.40;99.90;;;;;;5056469;28;20029;-63
2022/03/05 03:36:56;;;;;;;24.45;10.70;;;0.40;99.90;;;;;;5056436;28;20112;-63
2022/03/05 03:39:21;;;;;;;30.40;10.27;;;0.40;99.90;;;;;;5055057;28;20021;-63
2022/03/05 03:41:47;;;;;;;29.27;11.40;;;1.60;99.90;;;;;;5055050;28;20025;-62
2022/03/05 03:44:12;;;;;;;23.75;10.10;;;0.50;99.90;;;;;;5055061;28;20082;-63
2022/03/05 03:46:38;;;;;;;29.75;11.35;;;0.50;99.90;;;;;;5056237;28;20079;-62
2022/03/05 03:49:04;;;;;;;27.77;11.23;;;0.50;99.90;;;;;;5056173;28;20415;-63
2022/03/05 03:51:30;;;;;;;23.88;11.43;;;0.50;99.90;;;;;;5056415;28;20029;-63
2022/03/05 03:53:55;;;;;;;28.23;11.43;;;0.50;99.90;;;;;;5055756;28;20033;-63
2022/03/05 03:56:21;;;;;;;32.78;11.70;;;0.50;99.90;;;;;;5055747;28;20031;-63
2022/03/05 03:58:47;;;;;;;26.77;10.00;;;1.00;99.90;;;;;;5054743;28;20027;-63
2022/03/05 04:01:13;;;;;;;26.40;10.95;;;0.50;99.90;;;;;;5055963;28;20033;-63
2022/03/05 04:03:38;;;;;;;28.63;12.02;;;0.50;99.90;;;;;;5055903;28;20480;-63
2022/03/05 04:06:04;;;;;;;29.85;10.73;;;0.50;99.90;;;;;;5055589;28;20021;-63
2022/03/05 04:08:41;;;;;;;32.20;12.27;;;0.50;99.90;;;;;;5055899;28;20048;-63
2022/03/05 04:11:09;;;;;;;21.88;11.05;;;0.50;99.90;;;;;;5055944;28;20516;-63
2022/03/05 04:13:35;;;;;;;28.05;11.40;;;0.40;99.90;;;;;;5055075;28;20534;-63
2022/03/05 04:16:00;;;;;;;29.60;12.75;;;0.40;99.90;;;;;;5055366;28;20029;-62
2022/03/05 04:18:26;;;;;;;26.50;10.30;;;0.40;99.90;;;;;;5055625;28;20031;-63
2022/03/05 04:20:52;;;;;;;28.85;11.85;;;0.40;99.90;;;;;;5056094;28;20028;-63
2022/03/05 04:23:17;;;;;;;29.25;12.88;;;0.30;99.90;;;;;;5055562;28;20033;-63
2022/03/05 04:25:43;;;;;;;26.88;11.63;;;0.40;99.90;;;;;;5055609;28;20029;-63
2022/03/05 04:28:09;;;;;;;28.08;10.82;;;0.40;99.90;;;;;;5054154;28;20490;-63
2022/03/05 04:30:35;;;;;;;28.27;10.98;;;1.30;99.90;;;;;;5054132;28;20032;-63
2022/03/05 04:33:00;;;;;;;23.58;9.82;;;0.30;99.90;;;;;;5055035;28;20048;-63
2022/03/05 04:35:26;;;;;;;27.83;10.95;;;0.20;99.90;;;;;;5055437;28;20025;-63
2022/03/05 04:37:52;;;;;;;27.73;10.68;;;1.30;99.90;;;;;;5055223;28;20029;-63
2022/03/05 04:40:36;;;;;;;27.50;11.20;;;0.10;99.90;;;;;;5055211;28;20033;-63
2022/03/05 04:43:02;;;;;;;25.00;9.95;;;0.00;99.90;;;;;;5055429;28;20029;-63
2022/03/05 04:45:29;;;;;;;24.95;10.45;;;0.00;99.90;;;;;;5055139;28;20079;-63
2022/03/05 04:47:55;;;;;;;25.80;9.88;;;0.00;99.90;;;;;;5053814;28;20124;-63
2022/03/05 04:50:21;;;;;;;26.65;9.90;;;0.60;99.90;;;;;;5055273;28;20096;-63
2022/03/05 04:52:47;;;;;;;28.33;10.45;;;1.20;99.90;;;;;;5053632;28;20029;-63
2022/03/05 04:55:12;;;;;;;24.95;9.93;;;-0.40;99.90;;;;;;5054985;28;20040;-63
2022/03/05 04:57:38;;;;;;;26.27;10.88;;;-0.40;99.90;;;;;;5053656;28;20104;-63
2022/03/05 05:00:07;;;;;;;25.88;10.57;;;-0.40;99.90;;;;;;5055011;28;20037;-63
2022/03/05 05:02:32;;;;;;;25.35;10.32;;;-0.50;99.90;;;;;;5053547;28;20033;-63
2022/03/05 05:04:58;;;;;;;31.33;11.60;;;1.20;99.90;;;;;;5054457;28;20029;-63
2022/03/05 05:07:24;;;;;;;24.83;9.88;;;-0.50;99.90;;;;;;5054680;28;20052;-63
2022/03/05 05:09:50;;;;;;;25.40;9.73;;;-0.50;99.90;;;;;;5054760;28;20029;-63
2022/03/05 05:12:15;;;;;;;30.73;11.30;;;-0.30;99.90;;;;;;5054544;28;20544;-63
2022/03/05 05:14:41;;;;;;;29.52;11.52;;;0.00;99.90;;;;;;5054539;28;20519;-63
2022/03/05 05:17:06;;;;;;;29.55;10.45;;;-0.50;99.90;;;;;;5054756;28;20056;-64
2022/03/05 05:19:32;;;;;;;24.85;10.65;;;0.20;99.90;;;;;;5053474;28;20021;-63
2022/03/05 05:22:04;;;;;;;28.13;11.88;;;0.60;99.90;;;;;;5053181;28;20028;-63
2022/03/05 05:24:32;;;;;;;25.55;11.38;;;-0.50;99.90;;;;;;5052650;28;20025;-63
2022/03/05 05:26:59;;;;;;;26.55;10.32;;;-0.50;99.90;;;;;;5054114;28;20021;-63
2022/03/05 05:29:24;;;;;;;24.10;10.45;;;1.10;99.90;;;;;;5054718;28;20028;-63
2022/03/05 05:31:51;;;;;;;30.33;11.93;;;1.00;99.90;;;;;;5054152;28;20083;-63
2022/03/05 05:34:17;;;;;;;28.45;11.07;;;-0.50;99.90;;;;;;5054265;28;20029;-63
2022/03/05 05:36:43;;;;;;;23.48;10.88;;;-0.50;99.90;;;;;;5054185;28;20021;-63
2022/03/05 05:39:11;;;;;;;29.95;11.13;;;-0.50;99.90;;;;;;5054411;28;20029;-63
2022/03/05 05:41:38;;;;;;;28.23;11.27;;;-0.40;99.90;;;;;;5054098;28;20039;-63
2022/03/05 05:44:06;;;;;;;28.15;11.50;;;-0.40;99.90;;;;;;5053764;28;20444;-63
2022/03/05 05:46:31;;;;;;;29.00;11.98;;;-0.40;99.90;;;;;;5053999;28;20064;-63
2022/03/05 05:48:57;;;;;;;23.40;10.93;;;-0.40;99.90;;;;;;5054067;28;20048;-63
2022/03/05 05:51:25;;;;;;;27.77;11.25;;;-0.40;99.90;;;;;;5053965;28;20023;-63
2022/03/05 05:53:50;;;;;;;28.92;12.15;;;1.30;99.90;;;;;;5053874;28;20033;-63
2022/03/05 05:56:16;;;;;;;24.70;11.38;;;-0.30;99.90;;;;;;5054018;28;20021;-63
2022/03/05 05:58:42;;;;;;;30.75;11.77;;;-0.20;99.90;;;;;;5053855;28;20461;-63
2022/03/05 06:01:07;;;;;;;27.80;11.52;;;-0.10;99.90;;;;;;5053845;28;20449;-63
2022/03/05 06:03:33;;;;;;;28.67;11.80;;;-0.10;99.90;;;;;;5053784;28;20021;-62
2022/03/05 06:05:59;;;;;;;27.50;11.15;;;0.10;99.90;;;;;;5052257;28;20079;-63
2022/03/05 06:08:25;;;;;;;28.75;11.77;;;0.10;99.90;;;;;;5054076;28;20029;-63
2022/03/05 06:10:51;;;;;;;28.13;11.35;;;0.20;99.90;;;;;;5052433;28;20381;-63
2022/03/05 06:13:18;;;;;;;35.00;12.00;;;0.20;99.90;;;;;;5053620;28;20033;-63
2022/03/05 06:15:44;;;;;;;26.08;11.20;;;0.30;99.90;;;;;;5053409;28;20025;-63
2022/03/05 06:18:10;;;;;;;31.60;12.75;;;0.40;99.90;;;;;;5053657;28;20037;-63
2022/03/05 06:20:36;;;;;;;32.47;12.68;;;0.60;99.90;;;;;;5053710;28;20104;-62
2022/03/05 06:23:01;;;;;;;25.70;11.75;;;0.50;99.90;;;;;;5053882;28;20033;-63
2022/03/05 06:25:27;;;;;;;26.60;11.27;;;0.50;99.90;;;;;;5052296;28;20385;-62
2022/03/05 06:27:52;;;;;;;33.35;12.30;;;0.50;99.90;;;;;;5053212;28;20043;-63
2022/03/05 06:30:18;;;;;;;32.35;11.82;;;1.70;99.90;;;;;;5053751;28;20025;-62
2022/03/05 06:32:44;;;;;;;28.42;10.77;;;0.50;99.90;;;;;;5052198;28;20033;-62
2022/03/05 06:35:10;;;;;;;27.48;11.38;;;0.60;99.90;;;;;;5054378;28;20029;-63
2022/03/05 06:37:36;;;;;;;32.63;12.93;;;1.70;99.90;;;;;;5057532;28;20033;-63
2022/03/05 06:40:03;;;;;;;33.00;14.20;;;0.60;99.90;;;;;;5057489;28;20385;-63
2022/03/05 06:42:28;;;;;;;35.25;14.27;;;0.60;99.90;;;;;;5056098;28;20029;-64
2022/03/05 06:44:54;;;;;;;31.38;12.52;;;0.80;99.90;;;;;;5057809;28;20025;-63
2022/03/05 06:47:20;;;;;;;33.83;13.65;;;0.70;99.90;;;;;;5057370;28;20025;-63
2022/03/05 06:49:45;;;;;;;38.25;13.27;;;0.80;99.90;;;;;;5057628;28;20461;-63
2022/03/05 06:52:11;;;;;;;30.90;12.43;;;0.80;99.90;;;;;;5057198;28;20044;-64
2022/03/05 06:54:37;;;;;;;28.27;11.30;;;0.90;99.90;;;;;;5057248;28;20058;-62
2022/03/05 06:57:04;;;;;;;24.65;11.23;;;1.00;99.90;;;;;;5056910;28;20033;-62
2022/03/05 06:59:30;;;;;;;29.13;11.35;;;1.00;99.90;;;;;;5055851;28;20072;-63
2022/03/05 07:01:56;;;;;;;30.48;12.48;;;1.10;99.90;;;;;;5057098;28;20033;-62
2022/03/05 07:04:21;;;;;;;32.42;12.45;;;1.20;99.90;;;;;;5057016;28;20096;-62
2022/03/05 07:06:47;;;;;;;34.30;13.07;;;1.30;99.90;;;;;;5057086;28;20129;-68
2022/03/05 07:09:14;;;;;;;33.83;13.35;;;1.30;99.90;;;;;;5057291;28;20025;-63
2022/03/05 07:11:40;;;;;;;33.13;13.02;;;1.40;99.90;;;;;;5055601;28;20029;-64
2022/03/05 07:14:06;;;;;;;27.25;11.63;;;1.50;99.90;;;;;;5055508;28;20535;-63
2022/03/05 07:16:32;;;;;;;23.70;10.32;;;1.50;99.90;;;;;;5056840;28;20021;-64
2022/03/05 07:18:58;;;;;;;31.40;12.57;;;1.60;99.90;;;;;;5055697;28;20028;-64
2022/03/05 07:21:23;;;;;;;26.73;11.13;;;1.70;99.90;;;;;;5056482;28;20016;-64
2022/03/05 07:23:49;;;;;;;27.65;11.80;;;1.80;99.90;;;;;;5056822;28;20040;-63
2022/03/05 07:26:17;;;;;;;27.67;12.77;;;1.80;99.90;;;;;;5056911;28;20043;-65
2022/03/05 07:28:43;;;;;;;26.90;11.88;;;1.80;99.90;;;;;;5056917;28;20067;-64
2022/03/05 07:31:09;;;;;;;30.70;12.05;;;1.90;99.90;;;;;;5056484;28;20029;-63
2022/03/05 07:33:35;;;;;;;26.63;11.15;;;1.90;99.90;;;;;;5056404;28;20044;-64
2022/03/05 07:36:05;;;;;;;24.85;11.57;;;2.00;99.90;;;;;;5056673;28;20059;-61
2022/03/05 07:38:32;;;;;;;25.33;11.80;;;2.00;99.90;;;;;;5056746;28;20457;-63
2022/03/05 07:40:57;;;;;;;28.80;11.55;;;2.10;99.90;;;;;;5056615;28;20075;-63
2022/03/05 07:43:23;;;;;;;24.15;11.38;;;2.20;99.90;;;;;;5056516;28;20033;-62
2022/03/05 07:45:49;;;;;;;26.60;11.77;;;2.20;99.90;;;;;;5056292;28;20033;-62
2022/03/05 07:48:19;;;;;;;25.85;10.90;;;2.20;99.90;;;;;;5054240;28;20440;-62
2022/03/05 07:50:48;;;;;;;24.63;10.55;;;2.30;99.90;;;;;;5056178;28;20055;-62
2022/03/05 07:53:15;;;;;;;33.55;12.30;;;2.40;99.90;;;;;;5056259;28;20033;-62
2022/03/05 07:55:41;;;;;;;25.67;11.80;;;2.40;99.90;;;;;;5056101;28;20025;-63
2022/03/05 07:58:06;;;;;;;30.90;12.52;;;2.50;99.90;;;;;;5054746;28;20032;-62
2022/03/05 08:00:32;;;;;;;25.40;11.40;;;2.70;99.90;;;;;;5055960;28;20025;-62
2022/03/05 08:02:58;;;;;;;25.30;11.55;;;2.60;99.90;;;;;;5055936;28;20037;-63
2022/03/05 08:05:24;;;;;;;26.23;10.93;;;2.70;99.90;;;;;;5054614;28;20056;-62
2022/03/05 08:07:49;;;;;;;27.80;12.45;;;2.70;99.90;;;;;;5055658;28;20099;-64
2022/03/05 08:10:15;;;;;;;28.65;11.60;;;2.80;99.90;;;;;;5054545;28;20025;-63
2022/03/05 08:12:42;;;;;;;23.35;10.40;;;2.90;99.90;;;;;;5055308;28;20433;-64
2022/03/05 08:15:09;;;;;;;28.52;12.05;;;3.00;99.90;;;;;;5056060;28;20025;-63
2022/03/05 08:17:35;;;;;;;28.95;12.73;;;3.00;99.90;;;;;;5054461;28;20078;-64
2022/03/05 08:20:01;;;;;;;27.45;11.25;;;3.10;99.90;;;;;;5055719;28;20029;-64
2022/03/05 08:22:27;;;;;;;23.05;11.05;;;3.10;99.90;;;;;;5056173;28;20370;-65
2022/03/05 08:24:53;;;;;;;29.48;10.85;;;3.10;99.90;;;;;;5055394;28;20032;-64
2022/03/05 08:27:19;;;;;;;26.38;11.43;;;3.10;99.90;;;;;;5054373;28;20528;-64
2022/03/05 08:29:44;;;;;;;27.15;10.50;;;3.20;99.90;;;;;;5055165;28;20473;-64
2022/03/05 08:32:10;;;;;;;20.83;9.93;;;3.20;99.90;;;;;;5055025;28;20021;-64
2022/03/05 08:34:36;;;;;;;21.90;10.75;;;3.40;99.90;;;;;;5055332;28;20025;-64
2022/03/05 08:37:02;;;;;;;25.73;11.48;;;3.40;99.90;;;;;;5054127;28;20029;-64
2022/03/05 08:39:28;;;;;;;23.10;11.23;;;3.50;99.90;;;;;;5054244;28;20028;-64
2022/03/05 08:41:54;;;;;;;28.35;10.63;;;3.70;99.90;;;;;;5055236;28;20048;-64
2022/03/05 08:44:20;;;;;;;22.63;11.27;;;3.70;99.90;;;;;;5055161;28;20379;-64
2022/03/05 08:46:46;;;;;;;25.15;10.57;;;3.80;99.90;;;;;;5054879;28;20036;-64
2022/03/05 08:49:12;;;;;;;23.17;10.32;;;3.80;99.90;;;;;;5053955;28;20032;-64
2022/03/05 08:51:38;;;;;;;24.52;10.05;;;4.00;99.90;;;;;;5053770;28;20114;-66
2022/03/05 08:54:04;;;;;;;22.92;10.88;;;4.20;99.90;;;;;;5053674;28;20465;-63
2022/03/05 08:56:30;;;;;;;21.65;11.40;;;4.30;99.90;;;;;;5055255;28;20117;-62
2022/03/05 08:58:56;;;;;;;24.15;10.27;;;4.50;99.90;;;;;;5053879;28;20025;-63
2022/03/05 09:01:22;;;;;;;27.58;11.85;;;4.60;99.90;;;;;;5053568;28;20487;-63
2022/03/05 09:03:47;;;;;;;23.23;9.77;;;4.60;99.90;;;;;;5053466;28;20025;-64
2022/03/05 09:06:13;;;;;;;23.73;10.85;;;4.80;99.90;;;;;;5054815;28;20106;-63
2022/03/05 09:08:39;;;;;;;23.65;11.25;;;5.00;99.90;;;;;;5054779;28;20037;-63
2022/03/05 09:11:05;;;;;;;25.05;10.68;;;5.10;99.90;;;;;;5054360;28;20036;-64
2022/03/05 09:13:31;;;;;;;21.70;10.32;;;5.20;99.90;;;;;;5053331;28;20033;-63
2022/03/05 09:15:57;;;;;;;21.20;10.05;;;5.20;99.90;;;;;;5054743;28;20067;-64
2022/03/05 09:18:28;;;;;;;20.90;10.15;;;5.40;99.90;;;;;;5054259;28;20028;-65
2022/03/05 09:20:54;;;;;;;25.42;10.88;;;5.50;99.90;;;;;;5054542;28;20025;-64
2022/03/05 09:23:20;;;;;;;29.55;9.68;;;5.90;99.90;;;;;;5053196;28;20035;-63
2022/03/05 09:25:45;;;;;;;20.20;10.43;;;6.10;99.90;;;;;;5054457;28;20060;-63
2022/03/05 09:28:11;;;;;;;29.05;12.10;;;6.20;99.90;;;;;;5052790;28;20036;-64
2022/03/05 09:30:37;;;;;;;19.60;10.18;;;6.60;99.90;;;;;;5053059;28;20036;-64
2022/03/05 09:33:03;;;;;;;23.35;11.20;;;7.00;99.90;;;;;;5054248;28;20033;-63
2022/03/05 09:35:28;;;;;;;24.58;11.63;;;7.10;99.90;;;;;;5053137;28;20025;-63
2022/03/05 09:37:54;;;;;;;26.15;11.90;;;7.30;99.90;;;;;;5052912;28;20125;-63
2022/03/05 09:40:20;;;;;;;21.77;11.48;;;7.40;99.90;;;;;;5054166;28;20025;-63
2022/03/05 09:42:46;;;;;;;22.33;11.65;;;7.30;99.90;;;;;;5052878;28;20029;-63
2022/03/05 09:45:13;;;;;;;20.98;10.80;;;7.90;99.90;;;;;;5053842;28;20384;-64
2022/03/05 09:47:41;;;;;;;22.55;10.68;;;8.00;99.90;;;;;;5054056;28;20025;-63
2022/03/05 09:52:52;;;;;;;24.35;10.02;;;7.70;99.90;;;;;;5053930;28;20082;-64
2022/03/05 09:55:17;;;;;;;22.38;11.18;;;7.70;99.90;;;;;;5053920;28;20029;-64
2022/03/05 09:57:43;;;;;;;21.98;10.65;;;7.20;99.90;;;;;;5053910;28;20029;-63
2022/03/05 10:00:09;;;;;;;22.80;10.68;;;7.20;99.90;;;;;;5053984;28;20515;-64
2022/03/05 10:02:35;;;;;;;24.15;10.80;;;7.30;99.90;;;;;;5052547;28;20032;-64
2022/03/05 10:05:19;;;;;;;21.77;10.75;;;7.80;99.90;;;;;;5052457;28;20075;-64
2022/03/05 10:08:10;;;;;;;19.95;10.18;;;8.00;99.90;;;;;;5054294;28;20055;-63
2022/03/05 10:10:57;;;;;;;20.23;10.13;;;7.60;99.90;;;;;;5052174;28;20021;-64
2022/03/05 10:13:28;;;;;;;21.35;10.20;;;7.50;99.90;;;;;;5052584;28;20495;-63
2022/03/05 10:15:56;;;;;;;22.08;11.27;;;7.60;99.90;;;;;;5052437;28;20377;-63
2022/03/05 10:18:30;;;;;;;23.42;10.52;;;8.00;99.90;;;;;;5053362;28;20025;-64
2022/03/05 10:20:56;;;;;;;21.88;10.50;;;8.80;96.40;;;;;;5053415;28;20385;-64
2022/03/05 10:23:22;;;;;;;19.63;10.15;;;9.20;95.50;;;;;;5052393;28;20029;-65
2022/03/05 10:25:50;;;;;;;17.92;9.75;;;9.60;94.60;;;;;;5052289;28;20025;-65
2022/03/05 10:28:21;;;;;;;15.18;8.70;;;9.80;93.10;;;;;;5053601;28;20032;-65
2022/03/05 10:30:51;;;;;;;20.02;10.20;;;9.80;91.30;;;;;;5053575;28;20053;-64
2022/03/05 10:33:36;;;;;;;18.85;10.52;;;9.30;93.10;;;;;;5052233;28;20033;-65
2022/03/05 10:36:08;;;;;;;18.85;10.38;;;9.00;93.70;;;;;;5053722;28;20116;-64
2022/03/05 10:38:54;;;;;;;20.27;9.95;;;8.50;93.90;;;;;;5053996;28;20533;-64
2022/03/05 10:41:34;;;;;;;20.88;10.25;;;7.70;97.00;;;;;;5052596;28;20434;-64
2022/03/05 10:44:10;;;;;;;21.65;10.93;;;7.40;99.40;;;;;;5053451;28;20104;-64
2022/03/05 10:46:58;;;;;;;18.83;10.18;;;7.00;99.90;;;;;;5053671;28;20021;-64
2022/03/05 10:49:33;;;;;;;17.23;8.98;;;6.80;99.90;;;;;;5053539;28;20067;-64
2022/03/05 10:52:02;;;;;;;18.27;9.63;;;6.70;99.90;;;;;;5053403;28;20029;-64
2022/03/05 10:54:43;;;;;;;20.40;9.52;;;6.40;99.90;;;;;;5053348;28;20037;-63
2022/03/05 10:57:16;;;;;;;20.95;9.25;;;6.10;99.90;;;;;;5052224;28;20029;-63
2022/03/05 10:59:47;;;;;;;17.67;9.32;;;6.00;99.90;;;;;;5053548;28;20516;-64
2022/03/05 11:02:21;;;;;;;18.00;9.30;;;5.80;99.90;;;;;;5053212;28;20087;-63
2022/03/05 11:04:47;;;;;;;22.00;10.43;;;5.70;99.90;;;;;;5051986;28;20036;-63
2022/03/05 11:07:20;;;;;;;17.70;9.60;;;5.60;99.90;;;;;;5051486;28;20045;-63
2022/03/05 11:09:47;;;;;;;21.67;9.48;;;5.50;99.90;;;;;;5052583;28;20025;-64
2022/03/05 11:12:18;;;;;;;20.50;9.60;;;5.30;99.90;;;;;;5051802;28;20112;-64
2022/03/05 11:14:48;;;;;;;18.85;9.50;;;5.10;99.90;;;;;;5053161;28;20025;-63
2022/03/05 11:19:59;;;;;;;19.48;9.13;;;5.00;99.90;;;;;;5053194;28;20044;-63
2022/03/05 11:22:24;;;;;;;21.05;9.73;;;5.00;99.90;;;;;;5052930;28;20032;-62
2022/03/05 11:24:50;;;;;;;19.92;8.82;;;4.90;99.90;;;;;;5055505;28;20029;-64
2022/03/05 11:27:16;;;;;;;17.65;8.60;;;4.90;99.90;;;;;;5056662;28;20024;-62
2022/03/05 11:29:55;;;;;;;18.27;9.10;;;4.90;99.90;;;;;;5055094;28;20112;-63
2022/03/05 11:32:22;;;;;;;17.42;8.77;;;5.00;99.90;;;;;;5057087;28;20109;-63
2022/03/05 11:34:52;;;;;;;17.80;8.15;;;5.00;99.90;;;;;;5056225;28;20384;-63
2022/03/05 11:37:35;;;;;;;15.90;7.72;;;5.00;99.90;;;;;;5056490;28;20028;-63
2022/03/05 11:40:03;;;;;;;19.23;8.23;;;4.90;99.90;;;;;;5055162;28;20052;-64
2022/03/05 11:42:47;;;;;;;22.23;9.18;;;4.80;99.90;;;;;;5055099;28;20032;-63
2022/03/05 11:45:32;;;;;;;21.55;8.63;;;4.70;99.90;;;;;;5056463;28;20040;-63
2022/03/05 11:48:32;;;;;;;23.27;8.93;;;4.60;99.90;;;;;;5054989;28;20021;-63
2022/03/05 11:51:12;;;;;;;16.27;8.20;;;4.50;99.90;;;;;;5055957;28;20529;-64
2022/03/05 11:53:37;;;;;;;19.00;8.57;;;4.50;99.90;;;;;;5056150;28;20040;-62
2022/03/05 11:56:22;;;;;;;17.83;7.97;;;4.50;99.90;;;;;;5056086;28;20419;-63
2022/03/05 11:58:48;;;;;;;19.02;8.50;;;4.40;99.90;;;;;;5054772;28;20025;-63
2022/03/05 12:01:34;;;;;;;21.65;8.32;;;4.40;99.90;;;;;;5056131;28;20029;-62
2022/03/05 12:04:15;;;;;;;20.60;8.82;;;4.40;99.90;;;;;;5054601;28;20075;-63
2022/03/05 12:06:47;;;;;;;18.52;8.38;;;4.70;99.90;;;;;;5054533;28;20048;-65
2022/03/05 12:09:38;;;;;;;21.35;8.25;;;4.40;99.90;;;;;;5054562;28;20029;-64
2022/03/05 12:12:12;;;;;;;19.90;8.57;;;4.40;99.90;;;;;;5055087;28;20025;-64
2022/03/05 12:15:06;;;;;;;18.02;8.25;;;4.40;99.90;;;;;;5055953;28;20139;-63
2022/03/05 12:17:45;;;;;;;19.27;8.02;;;4.30;99.90;;;;;;5055607;28;20052;-63
2022/03/05 12:20:13;;;;;;;15.98;6.38;;;4.30;99.90;;;;;;5055790;28;20484;-64
2022/03/05 12:22:57;;;;;;;17.60;8.55;;;4.30;99.90;;;;;;5054417;28;20049;-64
2022/03/05 12:25:24;;;;;;;15.77;7.88;;;4.30;99.90;;;;;;5055590;28;20024;-64
2022/03/05 12:27:51;;;;;;;19.73;8.07;;;4.30;99.90;;;;;;5055537;28;20178;-63
2022/03/05 12:30:19;;;;;;;17.08;7.90;;;4.20;99.90;;;;;;5055466;28;20023;-63
2022/03/05 12:32:47;;;;;;;17.63;8.60;;;4.20;99.90;;;;;;5055114;28;20033;-63
2022/03/05 12:35:14;;;;;;;11.90;5.85;;;4.20;99.90;;;;;;5055393;28;20032;-64
2022/03/05 12:37:41;;;;;;;20.27;8.43;;;4.20;99.90;;;;;;5055455;28;20033;-64
2022/03/05 12:40:08;;;;;;;16.40;7.40;;;4.10;99.90;;;;;;5055309;28;20052;-64
2022/03/05 12:42:45;;;;;;;18.23;8.27;;;4.20;99.90;;;;;;5055229;28;20427;-64
2022/03/05 12:45:38;;;;;;;18.73;8.82;;;4.20;99.90;;;;;;5055211;28;20024;-64
2022/03/05 12:48:11;;;;;;;20.83;8.65;;;4.20;99.90;;;;;;5052170;28;20044;-64
2022/03/05 12:50:39;;;;;;;18.77;8.43;;;4.30;99.90;;;;;;5055079;28;20025;-64